createdAt,value
2019-06-26T00:00:09.990Z,6.22
2019-06-26T00:02:38.236Z,5.70
2019-06-26T00:05:07.383Z,7.62
2019-06-26T00:07:35.688Z,6.70
2019-06-26T00:10:05.277Z,6.47
2019-06-26T00:12:33.500Z,6.08
2019-06-26T00:15:01.796Z,6.25
2019-06-26T00:17:30.065Z,7.95
2019-06-26T00:19:58.379Z,6.20
2019-06-26T00:22:26.841Z,5.65
2019-06-26T00:24:55.117Z,5.53
2019-06-26T00:27:23.425Z,5.65
2019-06-26T00:29:51.696Z,5.55
2019-06-26T00:32:19.931Z,6.80
2019-06-26T00:34:48.196Z,5.60
2019-06-26T00:37:16.426Z,5.60
2019-06-26T00:39:44.690Z,8.63
2019-06-26T00:42:12.945Z,6.60
2019-06-26T00:44:41.210Z,6.53
2019-06-26T00:47:09.442Z,9.68
2019-06-26T00:49:37.749Z,6.80
2019-06-26T00:52:05.978Z,7.20
2019-06-26T00:54:34.240Z,6.33
2019-06-26T00:57:02.497Z,6.87
2019-06-26T00:59:30.733Z,6.50
2019-06-26T01:01:58.997Z,5.22
2019-06-26T01:04:31.880Z,7.20
2019-06-26T01:07:00.131Z,7.75
2019-06-26T01:09:28.368Z,5.08
2019-06-26T01:11:56.624Z,5.30
2019-06-26T01:14:24.879Z,6.78
2019-06-26T01:16:53.157Z,8.28
2019-06-26T01:19:21.390Z,5.53
2019-06-26T01:21:49.647Z,7.42
2019-06-26T01:24:17.970Z,5.87
2019-06-26T01:26:46.244Z,5.85
2019-06-26T01:29:14.473Z,7.85
2019-06-26T01:31:42.741Z,7.67
2019-06-26T01:34:10.976Z,8.88
2019-06-26T01:36:39.247Z,7.22
2019-06-26T01:39:07.570Z,5.12
2019-06-26T01:41:35.884Z,6.80
2019-06-26T01:44:14.071Z,8.95
2019-06-26T01:49:02.537Z,7.35
2019-06-26T01:51:30.981Z,8.35
2019-06-26T01:53:59.270Z,6.95
2019-06-26T01:56:27.533Z,7.40
2019-06-26T01:58:55.768Z,5.67
2019-06-26T02:01:24.259Z,7.03
2019-06-26T02:03:52.670Z,7.70
2019-06-26T02:06:20.925Z,6.03
2019-06-26T02:08:49.157Z,7.65
2019-06-26T02:11:17.426Z,8.33
2019-06-26T02:13:45.708Z,7.00
2019-06-26T02:16:13.969Z,7.47
2019-06-26T02:18:43.861Z,7.15
2019-06-26T02:21:12.148Z,8.48
2019-06-26T02:23:40.385Z,9.15
2019-06-26T02:26:08.635Z,6.87
2019-06-26T02:28:36.885Z,9.03
2019-06-26T02:31:05.126Z,6.78
2019-06-26T02:33:33.390Z,6.72
2019-06-26T02:36:01.650Z,7.83
2019-06-26T02:38:29.915Z,6.25
2019-06-26T02:40:58.173Z,6.78
2019-06-26T02:43:26.500Z,8.20
2019-06-26T02:45:54.749Z,7.78
2019-06-26T02:48:23.053Z,7.28
2019-06-26T02:50:51.309Z,8.93
2019-06-26T02:53:19.564Z,7.17
2019-06-26T02:55:47.793Z,6.95
2019-06-26T02:58:16.049Z,7.95
2019-06-26T03:00:44.291Z,5.10
2019-06-26T03:03:12.517Z,6.70
2019-06-26T03:05:40.777Z,5.95
2019-06-26T03:08:09.053Z,6.12
2019-06-26T03:10:37.296Z,6.12
2019-06-26T03:13:08.551Z,9.75
2019-06-26T03:15:36.813Z,8.63
2019-06-26T03:18:05.043Z,6.10
2019-06-26T03:20:42.297Z,8.63
2019-06-26T03:23:10.537Z,6.47
2019-06-26T03:25:38.798Z,7.42
2019-06-26T03:28:07.102Z,7.50
2019-06-26T03:30:35.362Z,8.80
2019-06-26T03:33:03.598Z,5.90
2019-06-26T03:35:31.885Z,9.38
2019-06-26T03:38:00.106Z,6.95
2019-06-26T03:40:28.372Z,6.00
2019-06-26T03:42:56.670Z,7.97
2019-06-26T03:45:26.391Z,7.37
2019-06-26T03:47:54.882Z,7.40
2019-06-26T03:50:23.126Z,6.78
2019-06-26T03:52:51.503Z,10.48
2019-06-26T03:55:19.764Z,6.47
2019-06-26T03:57:48.054Z,6.78
2019-06-26T04:00:17.976Z,7.35
2019-06-26T04:02:46.224Z,8.05
2019-06-26T04:05:14.479Z,9.53
2019-06-26T04:07:42.725Z,11.68
2019-06-26T04:10:11.253Z,9.73
2019-06-26T04:12:39.675Z,8.40
2019-06-26T04:15:08.105Z,6.65
2019-06-26T04:17:36.351Z,7.53
2019-06-26T04:20:07.703Z,6.95
2019-06-26T04:22:35.989Z,6.45
2019-06-26T04:25:06.237Z,8.63
2019-06-26T04:27:34.481Z,6.60
2019-06-26T04:30:02.797Z,9.85
2019-06-26T04:32:31.057Z,12.05
2019-06-26T04:34:59.331Z,15.28
2019-06-26T04:37:27.586Z,9.98
2019-06-26T04:39:55.827Z,11.18
2019-06-26T04:42:24.085Z,10.13
2019-06-26T04:44:52.335Z,8.75
2019-06-26T04:47:20.594Z,10.18
2019-06-26T04:49:48.836Z,10.38
2019-06-26T04:52:17.093Z,13.08
2019-06-26T04:54:45.331Z,10.13
2019-06-26T04:57:13.590Z,9.55
2019-06-26T04:59:41.914Z,10.88
2019-06-26T05:02:10.169Z,11.93
2019-06-26T05:04:38.423Z,9.00
2019-06-26T05:07:06.678Z,11.48
2019-06-26T05:09:34.932Z,10.65
2019-06-26T05:12:03.176Z,9.30
2019-06-26T05:14:31.421Z,9.85
2019-06-26T05:16:59.672Z,11.22
2019-06-26T05:19:27.954Z,11.83
2019-06-26T05:21:56.262Z,10.05
2019-06-26T05:24:24.498Z,11.12
2019-06-26T05:26:52.790Z,11.03
2019-06-26T05:29:21.049Z,12.07
2019-06-26T05:31:49.285Z,11.75
2019-06-26T05:34:17.563Z,8.98
2019-06-26T05:36:45.800Z,9.88
2019-06-26T05:39:14.070Z,12.18
2019-06-26T05:41:42.296Z,10.08
2019-06-26T05:44:10.557Z,9.93
2019-06-26T05:46:38.790Z,19.27
2019-06-26T05:49:07.052Z,8.95
2019-06-26T05:51:35.315Z,11.43
2019-06-26T05:54:06.272Z,7.65
2019-06-26T05:56:34.565Z,9.15
2019-06-26T05:59:02.838Z,8.88
2019-06-26T06:01:31.188Z,9.13
2019-06-26T06:03:59.435Z,7.97
2019-06-26T06:06:40.689Z,10.05
2019-06-26T06:08:57.666Z,8.28
2019-06-26T06:11:25.913Z,10.08
2019-06-26T06:13:54.244Z,7.17
2019-06-26T06:16:22.473Z,8.43
2019-06-26T06:18:50.749Z,10.13
2019-06-26T06:21:18.997Z,9.00
2019-06-26T06:23:47.245Z,7.83
2019-06-26T06:26:15.482Z,8.18
2019-06-26T06:28:43.712Z,7.22
2019-06-26T06:31:11.989Z,7.40
2019-06-26T06:33:40.350Z,9.58
2019-06-26T06:36:09.826Z,7.62
2019-06-26T06:38:38.267Z,8.17
2019-06-26T06:41:06.506Z,9.28
2019-06-26T06:43:34.750Z,7.62
2019-06-26T06:46:03.217Z,10.72
2019-06-26T06:48:31.628Z,7.50
2019-06-26T06:50:59.876Z,9.33
2019-06-26T06:53:28.197Z,8.70
2019-06-26T06:55:56.448Z,7.28
2019-06-26T06:58:24.742Z,8.20
2019-06-26T07:00:52.995Z,8.08
2019-06-26T07:03:22.054Z,8.10
2019-06-26T07:05:50.303Z,8.05
2019-06-26T07:08:18.578Z,7.85
2019-06-26T07:10:46.915Z,7.78
2019-06-26T07:13:15.183Z,7.85
2019-06-26T07:15:43.502Z,9.00
2019-06-26T07:18:11.745Z,7.75
2019-06-26T07:20:40.175Z,10.63
2019-06-26T07:23:08.408Z,8.58
2019-06-26T07:25:36.677Z,10.20
2019-06-26T07:28:04.959Z,7.80
2019-06-26T07:30:33.310Z,8.83
2019-06-26T07:33:01.581Z,9.85
2019-06-26T07:35:29.820Z,8.28
2019-06-26T07:38:00.241Z,7.95
2019-06-26T07:40:28.037Z,7.92
2019-06-26T07:42:56.304Z,7.35
2019-06-26T07:45:24.564Z,11.05
2019-06-26T07:47:52.876Z,11.30
2019-06-26T07:50:21.105Z,7.45
2019-06-26T07:52:49.384Z,6.80
2019-06-26T07:55:17.687Z,11.18
2019-06-26T07:57:45.941Z,8.63
2019-06-26T08:00:15.146Z,8.00
2019-06-26T08:02:43.409Z,7.87
2019-06-26T08:05:11.640Z,9.33
2019-06-26T08:07:39.889Z,7.20
2019-06-26T08:10:08.132Z,9.85
2019-06-26T08:12:36.385Z,7.62
2019-06-26T08:15:06.185Z,10.93
2019-06-26T08:17:34.449Z,10.38
2019-06-26T08:20:02.688Z,10.72
2019-06-26T08:22:30.952Z,10.90
2019-06-26T08:24:59.205Z,15.18
2019-06-26T08:27:27.461Z,8.88
2019-06-26T08:29:55.806Z,8.60
2019-06-26T08:32:25.999Z,8.88
2019-06-26T08:34:54.077Z,8.03
2019-06-26T08:37:22.364Z,8.23
2019-06-26T08:39:50.601Z,8.93
2019-06-26T08:42:19.002Z,8.73
2019-06-26T08:44:47.302Z,8.33
2019-06-26T08:47:15.544Z,8.60
2019-06-26T08:49:43.801Z,12.70
2019-06-26T08:52:12.050Z,9.38
2019-06-26T08:54:40.321Z,9.48
2019-06-26T08:57:08.566Z,8.68
2019-06-26T08:59:36.809Z,9.98
2019-06-26T09:02:05.045Z,9.45
2019-06-26T09:04:33.313Z,11.12
2019-06-26T09:07:01.556Z,9.88
2019-06-26T09:09:29.817Z,7.90
2019-06-26T09:11:58.045Z,10.58
2019-06-26T09:14:26.381Z,10.05
2019-06-26T09:16:54.635Z,8.50
2019-06-26T09:19:22.885Z,8.38
2019-06-26T09:21:51.120Z,7.80
2019-06-26T09:24:19.392Z,8.38
2019-06-26T09:26:47.692Z,8.50
2019-06-26T09:29:16.033Z,8.58
2019-06-26T09:31:44.267Z,8.05
2019-06-26T09:34:12.547Z,9.50
2019-06-26T09:36:40.811Z,7.95
2019-06-26T09:39:09.118Z,8.35
2019-06-26T09:41:37.365Z,7.45
2019-06-26T09:44:05.640Z,10.40
2019-06-26T09:46:33.941Z,8.95
2019-06-26T09:49:02.222Z,10.30
2019-06-26T09:51:30.585Z,9.50
2019-06-26T09:53:58.914Z,8.23
2019-06-26T09:56:27.176Z,11.33
2019-06-26T09:58:55.421Z,8.25
2019-06-26T10:01:23.674Z,9.93
2019-06-26T10:03:51.934Z,9.53
2019-06-26T10:06:20.260Z,7.50
2019-06-26T10:08:48.515Z,11.12
2019-06-26T10:11:16.790Z,8.65
2019-06-26T10:13:45.025Z,8.83
2019-06-26T10:16:13.298Z,10.95
2019-06-26T10:18:41.528Z,9.75
2019-06-26T10:21:09.791Z,9.68
2019-06-26T10:23:38.073Z,9.35
2019-06-26T10:26:06.419Z,8.03
2019-06-26T10:28:34.814Z,12.70
2019-06-26T10:31:03.085Z,10.85
2019-06-26T10:33:31.344Z,9.10
2019-06-26T10:35:59.590Z,11.68
2019-06-26T10:38:27.834Z,10.35
2019-06-26T10:40:56.093Z,7.97
2019-06-26T10:43:24.681Z,14.38
2019-06-26T10:45:52.990Z,8.28
2019-06-26T10:48:21.213Z,11.90
2019-06-26T10:50:57.899Z,10.88
2019-06-26T10:53:19.448Z,9.55
2019-06-26T10:55:47.691Z,9.95
2019-06-26T10:58:15.953Z,7.60
2019-06-26T11:00:44.234Z,7.03
2019-06-26T11:03:12.561Z,8.08
2019-06-26T11:05:41.647Z,10.38
2019-06-26T11:08:09.958Z,7.37
2019-06-26T11:10:38.189Z,8.10
2019-06-26T11:13:06.445Z,7.67
2019-06-26T11:15:34.693Z,7.60
2019-06-26T11:18:02.965Z,7.40
2019-06-26T11:20:31.295Z,9.80
2019-06-26T11:22:59.742Z,11.88
2019-06-26T11:25:28.048Z,6.97
2019-06-26T11:27:56.316Z,9.25
2019-06-26T11:30:24.551Z,7.12
2019-06-26T11:32:52.822Z,11.78
2019-06-26T11:35:21.068Z,7.15
2019-06-26T11:37:49.317Z,9.85
2019-06-26T11:40:17.654Z,7.70
2019-06-26T11:42:46.194Z,8.30
2019-06-26T11:45:14.571Z,8.63
2019-06-26T11:47:45.700Z,7.37
2019-06-26T11:50:12.881Z,11.95
2019-06-26T11:52:41.132Z,8.20
2019-06-26T11:55:09.476Z,7.37
2019-06-26T11:57:37.749Z,12.18
2019-06-26T12:00:14.349Z,6.17
2019-06-26T12:02:42.668Z,9.75
2019-06-26T12:05:11.797Z,9.25
2019-06-26T12:07:40.056Z,8.93
2019-06-26T12:10:10.025Z,10.58
2019-06-26T12:15:06.841Z,10.13
2019-06-26T12:17:35.082Z,6.35
2019-06-26T12:20:17.814Z,9.18
2019-06-26T12:22:34.157Z,12.18
2019-06-26T12:25:02.500Z,6.47
2019-06-26T12:27:30.735Z,13.18
2019-06-26T12:29:59.005Z,7.45
2019-06-26T12:32:27.266Z,10.50
2019-06-26T12:34:55.806Z,17.37
2019-06-26T12:37:36.980Z,8.93
2019-06-26T12:39:54.146Z,11.68
2019-06-26T12:42:22.457Z,13.58
2019-06-26T12:44:50.745Z,9.48
2019-06-26T12:47:18.971Z,13.25
2019-06-26T12:49:47.230Z,10.23
2019-06-26T12:52:17.040Z,10.35
2019-06-26T12:57:13.173Z,7.15
2019-06-26T12:59:56.003Z,7.67
2019-06-26T13:02:11.426Z,10.48
2019-06-26T13:04:39.689Z,9.38
2019-06-26T13:07:08.230Z,11.40
2019-06-26T13:09:36.615Z,9.45
2019-06-26T13:12:05.020Z,8.78
2019-06-26T13:14:33.289Z,11.22
2019-06-26T13:17:01.640Z,11.22
2019-06-26T13:19:29.971Z,11.88
2019-06-26T13:21:58.340Z,11.40
2019-06-26T13:24:26.619Z,12.60
2019-06-26T13:26:54.899Z,9.58
2019-06-26T13:29:23.304Z,14.13
2019-06-26T13:31:51.575Z,9.90
2019-06-26T13:34:19.805Z,10.48
2019-06-26T13:36:48.626Z,12.20
2019-06-26T13:39:16.906Z,14.15
2019-06-26T13:41:45.172Z,9.53
2019-06-26T13:44:13.411Z,8.70
2019-06-26T13:46:41.689Z,9.35
2019-06-26T13:49:09.999Z,9.45
2019-06-26T13:51:38.268Z,8.48
2019-06-26T13:54:06.505Z,12.88
2019-06-26T13:56:34.770Z,7.53
2019-06-26T13:59:03.039Z,9.03
2019-06-26T14:01:31.297Z,10.10
2019-06-26T14:03:59.557Z,12.47
2019-06-26T14:06:27.828Z,12.00
2019-06-26T14:08:56.154Z,11.15
2019-06-26T14:11:24.470Z,15.98
2019-06-26T14:13:52.735Z,8.30
2019-06-26T14:16:21.004Z,8.00
2019-06-26T14:18:49.242Z,10.82
2019-06-26T14:21:25.607Z,9.65
2019-06-26T14:26:15.052Z,10.95
2019-06-26T14:28:43.309Z,11.48
2019-06-26T14:31:11.547Z,11.97
2019-06-26T14:33:39.816Z,10.82
2019-06-26T14:36:08.054Z,11.63
2019-06-26T14:38:36.317Z,9.35
2019-06-26T14:41:04.579Z,10.95
2019-06-26T14:43:32.897Z,8.40
2019-06-26T14:46:01.146Z,14.75
2019-06-26T14:48:29.417Z,13.03
2019-06-26T14:50:57.652Z,8.98
2019-06-26T14:53:27.557Z,9.65
2019-06-26T14:55:55.883Z,8.30
2019-06-26T14:58:24.292Z,10.98
2019-06-26T15:00:52.549Z,9.50
2019-06-26T15:03:20.870Z,9.23
2019-06-26T15:05:49.100Z,11.55
2019-06-26T15:08:17.367Z,13.95
2019-06-26T15:10:45.665Z,15.93
2019-06-26T15:13:13.919Z,10.82
2019-06-26T15:15:42.164Z,9.08
2019-06-26T15:18:11.571Z,9.25
2019-06-26T15:20:40.173Z,9.30
2019-06-26T15:23:08.446Z,16.00
2019-06-26T15:25:36.701Z,12.75
2019-06-26T15:28:04.999Z,10.72
2019-06-26T15:30:33.259Z,9.28
2019-06-26T15:33:01.575Z,7.97
2019-06-26T15:35:29.812Z,10.32
2019-06-26T15:37:58.059Z,11.08
2019-06-26T15:40:26.320Z,11.85
2019-06-26T15:42:54.612Z,13.03
2019-06-26T15:45:22.958Z,9.45
2019-06-26T15:47:51.209Z,9.78
2019-06-26T15:50:19.478Z,8.53
2019-06-26T15:52:47.727Z,11.25
2019-06-26T15:55:15.992Z,15.23
2019-06-26T15:57:44.256Z,12.28
2019-06-26T16:00:12.574Z,6.92
2019-06-26T16:02:40.934Z,9.53
2019-06-26T16:05:09.268Z,11.20
2019-06-26T16:07:37.530Z,8.13
2019-06-26T16:10:09.178Z,11.80
2019-06-26T16:12:37.433Z,11.60
2019-06-26T16:15:06.221Z,6.20
2019-06-26T16:17:42.107Z,9.33
2019-06-26T16:20:10.426Z,8.23
2019-06-26T16:22:38.672Z,11.40
2019-06-26T16:25:07.423Z,10.43
2019-06-26T16:27:35.715Z,9.85
2019-06-26T16:30:08.156Z,11.40
2019-06-26T16:32:36.445Z,11.30
2019-06-26T16:35:06.742Z,9.45
2019-06-26T16:37:35.023Z,18.65
2019-06-26T16:40:04.920Z,10.13
2019-06-26T16:45:00.737Z,8.10
2019-06-26T16:47:28.968Z,9.15
2019-06-26T16:49:57.236Z,7.85
2019-06-26T16:52:25.470Z,15.10
2019-06-26T16:54:53.734Z,8.63
2019-06-26T16:57:21.965Z,12.85
2019-06-26T16:59:50.239Z,10.80
2019-06-26T17:02:18.523Z,12.33
2019-06-26T17:04:46.762Z,11.93
2019-06-26T17:07:15.042Z,10.90
2019-06-26T17:09:44.403Z,8.58
2019-06-26T17:12:12.822Z,11.38
2019-06-26T17:14:41.075Z,13.53
2019-06-26T17:17:09.416Z,10.00
2019-06-26T17:19:37.669Z,12.25
2019-06-26T17:22:05.938Z,9.63
2019-06-26T17:24:34.194Z,9.78
2019-06-26T17:27:02.464Z,11.88
2019-06-26T17:29:30.718Z,12.55
2019-06-26T17:31:58.991Z,10.90
2019-06-26T17:34:27.441Z,13.35
2019-06-26T17:36:55.785Z,13.30
2019-06-26T17:39:24.042Z,11.60
2019-06-26T17:41:52.309Z,9.95
2019-06-26T17:44:20.557Z,14.60
2019-06-26T17:46:48.853Z,8.05
2019-06-26T17:49:17.107Z,14.07
2019-06-26T17:51:45.411Z,14.55
2019-06-26T17:54:13.673Z,23.83
2019-06-26T17:56:41.928Z,36.68
2019-06-26T17:59:10.222Z,35.17
2019-06-26T18:01:38.550Z,29.37
2019-06-26T18:04:06.790Z,44.08
2019-06-26T18:06:35.035Z,21.40
2019-06-26T18:09:03.295Z,19.73
2019-06-26T18:11:31.549Z,18.27
2019-06-26T18:13:59.900Z,13.62
2019-06-26T18:16:28.156Z,13.75
2019-06-26T18:18:56.441Z,17.27
2019-06-26T18:21:24.759Z,6.17
2019-06-26T18:23:53.099Z,12.18
2019-06-26T18:26:21.350Z,9.45
2019-06-26T18:28:49.617Z,9.35
2019-06-26T18:31:17.909Z,10.90
2019-06-26T18:33:46.179Z,13.38
2019-06-26T18:36:14.413Z,11.38
2019-06-26T18:38:42.689Z,11.80
2019-06-26T18:41:10.944Z,17.23
2019-06-26T18:43:39.235Z,10.38
2019-06-26T18:46:07.576Z,11.03
2019-06-26T18:48:35.847Z,10.60
2019-06-26T18:51:04.102Z,15.20
2019-06-26T18:53:32.368Z,11.20
2019-06-26T18:56:00.619Z,13.75
2019-06-26T18:58:30.869Z,9.28
2019-06-26T19:00:58.869Z,12.53
2019-06-26T19:03:27.120Z,9.65
2019-06-26T19:05:55.373Z,7.40
2019-06-26T19:08:23.606Z,10.63
2019-06-26T19:10:51.871Z,7.72
2019-06-26T19:13:20.672Z,8.30
2019-06-26T19:15:49.065Z,10.50
2019-06-26T19:18:17.344Z,9.78
2019-06-26T19:20:45.589Z,9.53
2019-06-26T19:23:13.855Z,10.78
2019-06-26T19:25:42.153Z,10.32
2019-06-26T19:28:10.406Z,11.22
2019-06-26T19:30:38.676Z,9.50
2019-06-26T19:33:06.987Z,9.80
2019-06-26T19:35:35.277Z,13.08
2019-06-26T19:38:03.529Z,10.88
2019-06-26T19:40:31.818Z,10.18
2019-06-26T19:43:00.065Z,11.65
2019-06-26T19:45:28.414Z,9.45
2019-06-26T19:47:56.685Z,9.85
2019-06-26T19:50:24.941Z,14.50
2019-06-26T19:52:53.178Z,14.13
2019-06-26T19:55:21.472Z,10.13
2019-06-26T19:57:50.255Z,12.93
2019-06-26T20:00:18.556Z,10.72
2019-06-26T20:02:46.856Z,8.73
2019-06-26T20:05:15.134Z,10.43
2019-06-26T20:07:43.464Z,13.10
2019-06-26T20:10:11.725Z,10.10
2019-06-26T20:12:39.970Z,10.98
2019-06-26T20:15:08.245Z,9.50
2019-06-26T20:17:36.480Z,9.98
2019-06-26T20:20:06.757Z,11.60
2019-06-26T20:22:34.996Z,11.80
2019-06-26T20:25:04.207Z,10.30
2019-06-26T20:27:32.437Z,10.70
2019-06-26T20:30:00.701Z,12.55
2019-06-26T20:32:29.037Z,11.43
2019-06-26T20:34:57.293Z,17.67
2019-06-26T20:37:25.570Z,10.23
2019-06-26T20:39:53.860Z,9.80
2019-06-26T20:42:22.118Z,9.65
2019-06-26T20:44:50.468Z,9.85
2019-06-26T20:47:18.725Z,8.73
2019-06-26T20:49:53.211Z,11.15
2019-06-26T20:52:16.957Z,15.08
2019-06-26T20:54:59.899Z,12.50
2019-06-26T20:57:15.195Z,12.85
2019-06-26T20:59:43.441Z,13.85
2019-06-26T21:02:11.693Z,11.28
2019-06-26T21:04:39.954Z,16.30
2019-06-26T21:07:08.218Z,10.32
2019-06-26T21:09:36.454Z,8.73
2019-06-26T21:12:04.715Z,8.85
2019-06-26T21:14:32.960Z,11.15
2019-06-26T21:17:01.249Z,9.40
2019-06-26T21:19:29.494Z,9.25
2019-06-26T21:21:57.763Z,9.85
2019-06-26T21:24:26.021Z,10.28
2019-06-26T21:26:54.278Z,15.38
2019-06-26T21:29:22.520Z,9.28
2019-06-26T21:31:50.783Z,10.50
2019-06-26T21:34:19.024Z,10.68
2019-06-26T21:36:47.311Z,9.83
2019-06-26T21:39:15.545Z,11.03
2019-06-26T21:41:43.818Z,13.40
2019-06-26T21:44:12.066Z,11.33
2019-06-26T21:46:40.353Z,12.45
2019-06-26T21:49:08.590Z,11.25
2019-06-26T21:51:36.845Z,13.70
2019-06-26T21:54:05.113Z,10.30
2019-06-26T21:56:33.349Z,9.95
2019-06-26T21:59:01.619Z,8.40
2019-06-26T22:01:32.903Z,11.80
2019-06-26T22:04:01.885Z,9.50
2019-06-26T22:06:30.135Z,11.18
2019-06-26T22:08:58.402Z,12.28
2019-06-26T22:11:26.645Z,11.08
2019-06-26T22:13:54.936Z,9.43
2019-06-26T22:16:23.279Z,10.43
2019-06-26T22:18:51.574Z,11.48
2019-06-26T22:21:19.829Z,11.20
2019-06-26T22:23:48.068Z,11.43
2019-06-26T22:26:16.322Z,11.43
2019-06-26T22:28:44.579Z,12.65
2019-06-26T22:31:12.822Z,12.20
2019-06-26T22:33:41.093Z,13.93
2019-06-26T22:36:09.358Z,12.58
2019-06-26T22:38:37.627Z,12.80
2019-06-26T22:41:05.864Z,12.47
2019-06-26T22:43:34.212Z,9.95
2019-06-26T22:46:02.476Z,14.00
2019-06-26T22:48:30.798Z,10.58
2019-06-26T22:50:59.048Z,9.63
2019-06-26T22:53:27.306Z,9.50
2019-06-26T22:56:07.173Z,9.53
2019-06-26T22:58:25.545Z,11.22
2019-06-26T23:00:53.788Z,18.05
2019-06-26T23:03:22.053Z,11.97
2019-06-26T23:05:50.327Z,8.85
2019-06-26T23:08:18.570Z,7.47
2019-06-26T23:10:46.833Z,11.73
2019-06-26T23:13:15.082Z,9.15
2019-06-26T23:15:43.343Z,12.18
2019-06-26T23:18:11.610Z,9.90
2019-06-26T23:20:40.706Z,13.05
2019-06-26T23:23:08.956Z,15.63
2019-06-26T23:25:37.226Z,15.48
2019-06-26T23:28:05.464Z,12.45
2019-06-26T23:30:33.742Z,12.15
2019-06-26T23:33:02.078Z,11.73
2019-06-26T23:35:30.339Z,11.03
2019-06-26T23:37:58.591Z,14.05
2019-06-26T23:40:26.859Z,11.53
2019-06-26T23:42:55.114Z,13.03
2019-06-26T23:45:23.390Z,10.65
2019-06-26T23:47:51.662Z,10.85
2019-06-26T23:50:19.945Z,11.28
2019-06-26T23:52:48.197Z,11.05
2019-06-26T23:55:16.455Z,10.23
2019-06-26T23:57:58.617Z,13.00
